Time;durP1;ratioP1;P1;durP2;ratioP2;P2;SDS_P1;SDS_P2;PMS_P1;PMS_P2;Temp;Humidity;BMP_temperature;BMP_pressure;BME280_temperature;BME280_humidity;BME280_pressure;Samples;Min_cycle;Max_cycle;Signal;HPM_P1;HPM_P2
2022/05/09 00:00:21;;;;;;;;;22.67;20.00;;;;;17.28;53.30;101993.53;5018135;28;45453;-68
2022/05/09 00:02:47;;;;;;;;;20.00;19.00;;;;;17.31;53.23;102008.50;5018705;28;45532;-67
2022/05/09 00:05:16;;;;;;;;;19.67;18.33;;;;;17.24;53.31;102002.91;5018953;28;45389;-68
2022/05/09 00:07:42;;;;;;;;;23.67;20.33;;;;;17.05;53.33;101968.16;5018252;28;46585;-68
2022/05/09 00:10:10;;;;;;;;;9.33;9.33;;;;;16.67;52.82;101908.44;5018012;28;45480;-69
2022/05/09 00:12:36;;;;;;;;;13.00;12.67;;;;;17.27;52.84;102007.97;5017955;28;46238;-68
2022/05/09 00:15:03;;;;;;;;;17.67;16.67;;;;;17.17;53.00;101993.78;5017519;28;45330;-67
2022/05/09 00:17:28;;;;;;;;;16.33;16.33;;;;;17.22;53.05;102014.78;5017989;28;47821;-68
2022/05/09 00:19:54;;;;;;;;;15.67;15.00;;;;;16.46;53.32;101896.31;5018221;28;45254;-68
2022/05/09 00:22:19;;;;;;;;;23.67;19.67;;;;;17.08;53.27;102018.06;5017852;28;45415;-68
2022/05/09 00:24:44;;;;;;;;;17.67;16.33;;;;;16.52;53.27;101928.75;5017012;28;45564;-68
2022/05/09 00:27:10;;;;;;;;;16.00;16.00;;;;;17.00;53.15;102011.59;5018091;28;46345;-68
2022/05/09 00:29:36;;;;;;;;;16.67;15.33;;;;;16.97;53.25;102005.69;5016685;28;45404;-68
2022/05/09 00:32:01;;;;;;;;;21.00;18.00;;;;;16.82;53.21;101986.63;5016680;28;45480;-67
2022/05/09 00:34:27;;;;;;;;;17.67;14.67;;;;;16.69;53.55;101989.69;5018255;28;45408;-69
2022/05/09 00:36:52;;;;;;;;;14.00;14.00;;;;;16.52;53.75;101984.28;5016860;28;45821;-67
2022/05/09 00:39:19;;;;;;;;;14.67;14.67;;;;;16.51;53.78;101986.13;4983225;28;46104;-67
2022/05/09 00:41:45;;;;;;;;;15.00;13.67;;;;;16.51;54.09;101994.16;4998189;28;45522;-67
2022/05/09 00:44:12;;;;;;;;;15.67;15.67;;;;;16.53;54.22;102010.97;4998026;28;45231;-67
2022/05/09 00:46:40;;;;;;;;;13.67;13.67;;;;;16.45;54.33;102013.56;4996533;28;47431;-68
2022/05/09 00:49:18;;;;;;;;;14.00;13.00;;;;;16.30;54.33;101988.25;5007201;28;45396;-68
2022/05/09 00:51:51;;;;;;;;;17.00;14.67;;;;;16.34;54.41;101997.66;5017642;28;45504;-68
2022/05/09 00:54:16;;;;;;;;;15.33;14.00;;;;;16.40;54.31;101989.00;5000076;28;45472;-67
2022/05/09 00:56:51;;;;;;;;;15.67;14.67;;;;;16.36;53.98;101988.47;5017306;28;45701;-67
2022/05/09 00:59:19;;;;;;;;;18.00;15.67;;;;;16.43;53.72;101996.78;5017415;28;45267;-68
2022/05/09 01:01:47;;;;;;;;;13.67;13.67;;;;;16.49;53.63;102017.63;5016905;28;45259;-68
2022/05/09 01:04:18;;;;;;;;;12.67;10.00;;;;;15.76;53.77;101906.81;5016255;28;45634;-67
2022/05/09 01:06:44;;;;;;;;;18.33;17.67;;;;;16.27;53.44;101980.50;5015909;28;47683;-66
2022/05/09 01:09:12;;;;;;;;;17.00;13.67;;;;;16.32;54.02;102013.94;5017525;28;45171;-67
2022/05/09 01:11:40;;;;;;;;;12.33;12.33;;;;;16.31;53.61;102009.56;5017534;28;45243;-67
2022/05/09 01:14:28;;;;;;;;;14.67;13.33;;;;;15.58;53.86;101908.56;5013158;28;45335;-68
2022/05/09 01:16:54;;;;;;;;;8.67;8.00;;;;;16.04;53.69;102013.09;5011054;28;46562;-67
2022/05/09 01:19:31;;;;;;;;;13.67;10.33;;;;;15.96;53.91;102007.63;5017267;28;45409;-68
2022/05/09 01:21:59;;;;;;;;;13.33;13.33;;;;;15.27;54.14;101894.59;5017160;28;45318;-68
2022/05/09 01:24:26;;;;;;;;;14.33;13.00;;;;;15.95;53.95;102003.25;5017079;28;45515;-68
2022/05/09 01:26:52;;;;;;;;;13.00;13.00;;;;;15.91;53.76;101995.66;4999420;28;46537;-68
2022/05/09 01:29:27;;;;;;;;;12.00;12.00;;;;;15.86;53.70;101998.78;5016124;28;45488;-68
2022/05/09 01:31:55;;;;;;;;;14.67;9.67;;;;;15.95;53.72;102007.78;4999884;28;45227;-67
2022/05/09 01:34:20;;;;;;;;;13.00;9.67;;;;;15.89;53.66;101998.47;5016436;28;45385;-67
2022/05/09 01:36:54;;;;;;;;;16.33;14.33;;;;;15.92;53.74;102016.97;5016802;28;45602;-68
2022/05/09 01:39:19;;;;;;;;;15.00;13.00;;;;;15.88;53.93;102017.41;5016215;28;45409;-67
2022/05/09 01:41:47;;;;;;;;;11.00;9.00;;;;;15.67;53.96;101988.13;5016374;28;45262;-73
2022/05/09 01:44:15;;;;;;;;;14.33;13.33;;;;;15.79;53.71;102016.44;5016895;28;45572;-66
2022/05/09 01:49:30;;;;;;;;;10.00;9.67;;;;;15.71;53.52;102008.28;5016912;28;45363;-67
2022/05/09 01:52:00;;;;;;;;;9.00;7.00;;;;;15.64;53.52;101978.56;5017098;28;45225;-68
2022/05/09 01:54:26;;;;;;;;;12.33;10.67;;;;;15.79;53.53;102000.34;5017125;28;45404;-68
2022/05/09 01:56:52;;;;;;;;;11.33;11.00;;;;;15.79;53.18;102006.56;5016021;28;45339;-67
2022/05/09 01:59:17;;;;;;;;;14.00;12.67;;;;;15.71;53.18;102000.25;4998156;28;45468;-67
2022/05/09 02:01:54;;;;;;;;;13.33;9.67;;;;;15.51;53.31;101978.00;4981001;28;45542;-68
2022/05/09 02:04:20;;;;;;;;;9.67;9.67;;;;;15.65;53.26;102011.56;4998267;28;45429;-67
2022/05/09 02:06:45;;;;;;;;;7.67;7.67;;;;;15.43;53.17;101978.72;4996678;28;46090;-67
2022/05/09 02:09:11;;;;;;;;;11.00;11.00;;;;;15.32;53.24;101959.28;5015915;28;45415;-68
2022/05/09 02:11:37;;;;;;;;;12.33;11.33;;;;;15.65;53.28;102011.56;5015400;28;45358;-67
2022/05/09 02:14:03;;;;;;;;;8.00;7.00;;;;;15.59;53.55;101998.72;5016507;28;45525;-67
2022/05/09 02:16:28;;;;;;;;;10.00;9.67;;;;;14.93;52.87;101892.41;5015416;28;46469;-67
2022/05/09 02:18:54;;;;;;;;;13.67;11.00;;;;;15.64;52.77;102005.38;5016355;28;45512;-68
2022/05/09 02:21:20;;;;;;;;;10.67;10.00;;;;;15.69;53.55;102000.41;4998714;28;45488;-68
2022/05/09 02:23:45;;;;;;;;;11.67;10.33;;;;;15.65;52.64;101993.66;5015569;28;45481;-68
2022/05/09 02:26:11;;;;;;;;;8.67;8.67;;;;;15.65;52.52;101992.81;5016370;28;45442;-67
2022/05/09 02:28:36;;;;;;;;;10.00;9.00;;;;;15.58;52.52;101967.53;5016370;28;45338;-67
2022/05/09 02:31:02;;;;;;;;;9.67;9.67;;;;;15.62;52.56;102003.81;5016573;28;45432;-69
2022/05/09 02:33:28;;;;;;;;;12.67;10.67;;;;;15.47;52.56;101976.59;5016879;28;45452;-67
2022/05/09 02:35:54;;;;;;;;;10.67;9.67;;;;;15.49;52.69;101993.38;5016126;28;45466;-67
2022/05/09 02:38:19;;;;;;;;;12.33;10.33;;;;;15.31;53.12;102004.00;5009839;28;46318;-68
2022/05/09 02:40:45;;;;;;;;;12.00;10.00;;;;;15.30;53.17;101996.94;4987121;28;45320;-68
2022/05/09 02:43:11;;;;;;;;;9.00;5.33;;;;;15.33;53.48;101999.34;5016556;28;45259;-67
2022/05/09 02:45:38;;;;;;;;;9.00;9.00;;;;;15.34;53.52;101997.50;5017620;28;46101;-67
2022/05/09 02:48:05;;;;;;;;;10.33;9.33;;;;;15.32;53.56;101994.97;5019538;28;45256;-67
2022/05/09 02:50:30;;;;;;;;;7.67;7.67;;;;;15.09;53.27;101948.06;5019506;28;45417;-68
2022/05/09 02:52:56;;;;;;;;;10.33;9.67;;;;;15.18;53.33;101949.88;4997782;28;45477;-67
2022/05/09 02:55:22;;;;;;;;;11.33;10.33;;;;;15.47;52.94;101996.22;4999443;28;45640;-68
2022/05/09 02:57:48;;;;;;;;;14.00;10.33;;;;;15.35;52.59;101973.25;4999551;28;45306;-67
2022/05/09 03:00:20;;;;;;;;;11.67;10.00;;;;;15.45;53.38;101990.16;4981832;28;45638;-67
2022/05/09 03:04:38;;;;;;;;;14.33;10.67;;;;;14.98;53.13;101911.56;4982015;28;45263;-68
2022/05/09 03:05:32;;;;;;;;;9.33;8.00;;;;;15.35;53.56;101967.88;5008126;28;46189;-68
2022/05/09 03:07:58;;;;;;;;;14.33;10.67;;;;;15.29;53.42;101973.81;5019203;28;45436;-67
2022/05/09 03:10:24;;;;;;;;;12.33;8.67;;;;;15.32;53.25;101984.25;5019190;28;45372;-68
2022/05/09 03:12:50;;;;;;;;;12.67;11.33;;;;;15.33;53.13;101979.72;5019234;28;45562;-67
2022/05/09 03:15:16;;;;;;;;;18.00;15.00;;;;;15.40;53.32;101987.03;5019452;28;46656;-67
2022/05/09 03:17:42;;;;;;;;;16.00;13.67;;;;;15.26;53.48;101963.41;5017793;28;45564;-68
2022/05/09 03:20:08;;;;;;;;;15.00;12.33;;;;;15.03;53.18;101927.22;5018414;28;45199;-67
2022/05/09 03:22:34;;;;;;;;;11.67;9.67;;;;;15.17;53.66;101962.41;5018486;28;45549;-68
2022/05/09 03:25:00;;;;;;;;;9.00;9.00;;;;;15.27;53.75;101989.19;5018204;28;46555;-67
2022/05/09 03:27:26;;;;;;;;;12.00;11.33;;;;;15.27;53.48;101983.84;5019188;28;45366;-67
2022/05/09 03:29:52;;;;;;;;;11.67;10.00;;;;;15.25;53.77;101977.78;5017872;28;45445;-66
2022/05/09 03:32:17;;;;;;;;;14.67;11.67;;;;;15.20;53.88;101985.38;5001299;28;46015;-68
2022/05/09 03:34:43;;;;;;;;;11.33;10.67;;;;;15.00;54.02;101954.28;5018893;28;45255;-66
2022/05/09 03:37:09;;;;;;;;;10.33;9.33;;;;;15.02;53.78;101946.97;5017957;28;45350;-67
2022/05/09 03:39:34;;;;;;;;;10.33;9.33;;;;;15.16;54.04;101979.47;5018672;28;45292;-66
2022/05/09 03:41:59;;;;;;;;;11.33;10.33;;;;;14.87;53.98;101944.72;5019006;28;45424;-67
2022/05/09 03:44:25;;;;;;;;;9.33;9.33;;;;;15.09;54.27;101972.19;5018460;28;47016;-67
2022/05/09 03:46:50;;;;;;;;;8.67;8.67;;;;;15.07;54.08;101958.94;5017811;28;45463;-67
2022/05/09 03:49:15;;;;;;;;;8.33;8.33;;;;;15.13;54.13;101984.28;5003558;28;45573;-68
2022/05/09 03:51:41;;;;;;;;;11.00;10.00;;;;;15.11;54.24;101980.91;4998925;28;45295;-67
2022/05/09 03:54:06;;;;;;;;;10.33;9.67;;;;;15.06;54.28;101961.75;4998625;28;46448;-66
2022/05/09 03:56:31;;;;;;;;;11.00;11.00;;;;;15.12;54.09;101987.94;5013450;28;45694;-67
2022/05/09 03:58:57;;;;;;;;;10.67;10.33;;;;;15.05;54.13;101974.31;5019024;28;45395;-68
2022/05/09 04:01:23;;;;;;;;;6.33;6.33;;;;;15.01;54.73;101978.22;4999382;28;45285;-68
2022/05/09 04:03:48;;;;;;;;;15.33;12.67;;;;;14.83;54.60;101956.72;5018263;28;46414;-67
2022/05/09 04:06:14;;;;;;;;;12.00;11.33;;;;;14.95;54.71;101983.31;5018490;28;45445;-67
2022/05/09 04:08:39;;;;;;;;;9.33;9.33;;;;;14.86;55.07;101977.84;5017586;28;45259;-67
2022/05/09 04:11:04;;;;;;;;;12.67;12.67;;;;;12.99;55.01;101666.06;5018465;28;45424;-67
2022/05/09 04:13:30;;;;;;;;;14.00;10.67;;;;;14.97;55.07;101986.69;5018086;28;47450;-67
2022/05/09 04:18:41;;;;;;;;;11.67;10.67;;;;;14.51;55.10;101903.47;5018344;28;45512;-69
2022/05/09 04:21:08;;;;;;;;;15.00;11.67;;;;;14.83;55.31;101963.91;5018124;28;45393;-67
2022/05/09 04:23:34;;;;;;;;;12.33;12.33;;;;;14.89;55.17;101974.03;5015126;28;47425;-67
2022/05/09 04:26:00;;;;;;;;;12.33;12.00;;;;;14.78;55.57;101980.34;4999724;28;45793;-67
2022/05/09 04:28:26;;;;;;;;;13.67;12.67;;;;;14.68;55.82;101979.53;5017781;28;45517;-68
2022/05/09 04:30:52;;;;;;;;;13.33;10.33;;;;;14.61;56.14;101986.41;5016722;28;45257;-68
2022/05/09 04:33:17;;;;;;;;;14.67;14.67;;;;;14.27;55.71;101914.56;5016224;28;47837;-68
2022/05/09 04:35:44;;;;;;;;;16.00;13.00;;;;;14.71;55.96;101981.91;5016767;28;45476;-67
2022/05/09 04:38:22;;;;;;;;;14.00;13.33;;;;;14.64;56.00;101974.59;5017828;28;45317;-67
2022/05/09 04:40:51;;;;;;;;;16.67;14.67;;;;;14.54;55.81;101945.16;5018064;28;45430;-67
2022/05/09 04:43:19;;;;;;;;;14.67;13.67;;;;;14.71;55.59;101963.19;5016540;28;45921;-67
2022/05/09 04:45:44;;;;;;;;;11.00;11.00;;;;;14.77;55.58;101983.19;5017594;28;45587;-68
2022/05/09 04:48:10;;;;;;;;;17.33;14.33;;;;;14.22;55.66;101876.69;5017509;28;45404;-67
2022/05/09 04:50:35;;;;;;;;;12.67;12.00;;;;;14.57;55.57;101939.50;5017745;28;45273;-68
2022/05/09 04:53:02;;;;;;;;;11.67;11.67;;;;;14.81;55.56;101972.03;4999092;28;46702;-66
2022/05/09 04:55:28;;;;;;;;;15.67;12.67;;;;;14.90;55.42;101975.72;5003896;28;45554;-67
2022/05/09 04:57:53;;;;;;;;;16.33;14.33;;;;;14.60;55.54;101928.53;4997780;28;45390;-68
2022/05/09 05:00:24;;;;;;;;;16.67;15.00;;;;;14.89;55.46;101982.91;4997738;28;45433;-68
2022/05/09 05:02:50;;;;;;;;;15.67;15.33;;;;;14.93;55.48;101966.56;4996350;28;47596;-67
2022/05/09 05:05:16;;;;;;;;;19.33;15.33;;;;;14.97;55.17;101975.97;4997642;28;45306;-66
2022/05/09 05:07:42;;;;;;;;;13.33;10.33;;;;;14.88;55.01;101949.09;5006499;28;46853;-67
2022/05/09 05:10:08;;;;;;;;;12.67;12.00;;;;;15.10;54.99;101981.91;5004910;28;45497;-68
2022/05/09 05:12:34;;;;;;;;;12.67;12.00;;;;;15.04;55.08;101974.44;4979317;28;48551;-68
2022/05/09 05:15:00;;;;;;;;;18.33;16.33;;;;;15.20;54.79;101980.88;5001056;28;45534;-67
2022/05/09 05:17:25;;;;;;;;;18.33;16.00;;;;;15.09;54.32;101956.09;4998058;28;45580;-68
2022/05/09 05:19:51;;;;;;;;;13.67;10.67;;;;;15.14;54.29;101964.53;5017250;28;45504;-68
2022/05/09 05:22:16;;;;;;;;;14.00;11.67;;;;;15.33;54.37;101990.44;5017048;28;46339;-68
2022/05/09 05:24:44;;;;;;;;;16.33;15.00;;;;;15.39;54.15;101989.88;4998436;28;45329;-69
2022/05/09 05:27:11;;;;;;;;;16.33;15.00;;;;;15.46;54.29;101991.84;5017047;28;45347;-68
2022/05/09 05:29:38;;;;;;;;;12.67;12.67;;;;;15.40;53.82;101962.91;5007910;28;45453;-67
2022/05/09 05:32:20;;;;;;;;;18.67;15.33;;;;;15.59;53.77;101986.16;4996794;28;47520;-69
2022/05/09 05:34:49;;;;;;;;;16.33;14.33;;;;;15.66;53.65;101989.13;5014903;28;46659;-73
2022/05/09 05:37:16;;;;;;;;;20.67;20.33;;;;;15.14;53.62;101895.75;5017007;28;45429;-69
2022/05/09 05:39:43;;;;;;;;;17.00;15.00;;;;;15.67;53.25;101982.78;5017214;28;45226;-68
2022/05/09 05:42:09;;;;;;;;;17.33;15.00;;;;;15.71;53.14;102005.63;5015581;28;48137;-69
2022/05/09 05:44:37;;;;;;;;;17.67;17.67;;;;;15.72;53.39;101994.75;4998792;28;45560;-67
2022/05/09 05:47:11;;;;;;;;;16.00;13.67;;;;;15.72;53.16;101978.66;4998191;28;45493;-68
2022/05/09 05:49:38;;;;;;;;;16.00;15.00;;;;;15.73;52.91;101983.03;5017297;28;45250;-68
2022/05/09 05:52:05;;;;;;;;;20.00;14.67;;;;;15.80;53.19;101994.00;4997960;28;47949;-68
2022/05/09 05:54:32;;;;;;;;;16.67;13.00;;;;;15.69;53.16;101968.22;4998451;28;45805;-70
2022/05/09 05:56:58;;;;;;;;;15.00;14.67;;;;;15.85;52.71;101970.28;4998753;28;45262;-68
2022/05/09 05:59:25;;;;;;;;;17.33;14.33;;;;;15.85;52.60;101985.53;4998817;28;45316;-69
2022/05/09 06:01:51;;;;;;;;;14.67;13.67;;;;;15.80;52.75;101961.81;4997631;28;46015;-69
2022/05/09 06:04:17;;;;;;;;;18.33;16.67;;;;;15.90;52.52;101962.63;5016229;28;45507;-71
2022/05/09 06:06:42;;;;;;;;;19.33;15.67;;;;;15.94;52.52;101958.66;4998794;28;45492;-77
2022/05/09 06:09:09;;;;;;;;;15.33;15.00;;;;;16.44;52.08;101987.72;5017370;28;45563;-74
2022/05/09 06:11:35;;;;;;;;;18.33;16.67;;;;;16.92;50.80;101973.94;5016863;28;45506;-72
2022/05/09 06:14:05;;;;;;;;;16.00;9.67;;;;;17.62;49.07;101984.66;5015316;28;45677;-72
2022/05/09 06:16:37;;;;;;;;;15.33;13.33;;;;;18.32;47.50;101990.69;5014956;28;45899;-70
2022/05/09 06:19:08;;;;;;;;;18.67;13.67;;;;;19.01;45.73;101999.38;4997657;28;46325;-70
2022/05/09 06:21:37;;;;;;;;;13.33;12.67;;;;;19.54;44.47;102000.72;5001466;28;46611;-73
2022/05/09 06:24:06;;;;;;;;;16.67;15.00;;;;;20.05;43.81;101994.81;5019746;28;45254;-72
2022/05/09 06:26:36;;;;;;;;;15.00;11.67;;;;;20.51;41.65;101967.06;5020088;28;45559;-70
2022/05/09 06:29:06;;;;;;;;;18.33;14.67;;;;;20.96;40.65;101985.13;5001966;28;45365;-70
2022/05/09 06:31:32;;;;;;;;;14.67;14.67;;;;;21.17;40.20;101946.56;5019638;28;45334;-71
2022/05/09 06:33:58;;;;;;;;;14.33;11.00;;;;;21.97;39.08;102000.81;5001672;28;45318;-70
2022/05/09 06:36:23;;;;;;;;;14.67;12.67;;;;;22.48;38.55;101998.13;4999830;28;45529;-70
2022/05/09 06:38:48;;;;;;;;;13.33;12.33;;;;;22.91;37.54;101984.63;5014034;28;45548;-71
2022/05/09 06:41:14;;;;;;;;;18.33;13.67;;;;;22.81;35.83;101932.53;5018432;28;47350;-70
2022/05/09 06:43:43;;;;;;;;;18.67;14.00;;;;;23.23;35.38;101969.66;5034472;28;45408;-70
2022/05/09 06:46:09;;;;;;;;;19.33;12.67;;;;;23.77;35.47;102007.81;5019663;28;45575;-70
2022/05/09 06:48:34;;;;;;;;;13.33;12.33;;;;;23.97;34.80;101981.59;5035107;28;45286;-71
2022/05/09 06:50:59;;;;;;;;;16.33;15.33;;;;;24.32;34.03;102008.72;5019487;28;46274;-70
2022/05/09 06:53:25;;;;;;;;;16.67;15.67;;;;;24.29;34.01;101973.81;5018610;28;45225;-70
2022/05/09 06:55:51;;;;;;;;;15.00;15.00;;;;;24.34;33.63;101911.50;5019545;28;45551;-69
2022/05/09 06:58:24;;;;;;;;;18.00;15.00;;;;;24.66;32.57;101949.84;5019418;28;45502;-70
2022/05/09 07:00:51;;;;;;;;;22.00;17.00;;;;;25.33;32.74;102014.94;5019002;28;45416;-71
2022/05/09 07:03:23;;;;;;;;;17.33;16.33;;;;;25.60;32.13;101993.94;5001164;28;45517;-71
2022/05/09 07:05:51;;;;;;;;;19.33;14.33;;;;;25.78;32.03;101977.81;5017779;28;45494;-72
2022/05/09 07:08:22;;;;;;;;;20.67;15.67;;;;;25.86;31.15;101948.66;5019446;28;45257;-72
2022/05/09 07:10:47;;;;;;;;;17.33;14.33;;;;;26.44;30.58;102003.13;5017717;28;45872;-72
2022/05/09 07:13:13;;;;;;;;;16.67;16.67;;;;;26.72;30.63;101989.94;5024525;28;45266;-70
2022/05/09 07:15:38;;;;;;;;;18.67;15.67;;;;;27.00;29.32;101972.31;5015481;28;45535;-71
2022/05/09 07:18:08;;;;;;;;;22.33;18.67;;;;;27.53;29.17;101999.97;5019819;28;45356;-70
2022/05/09 07:20:34;;;;;;;;;24.00;22.00;;;;;28.05;29.13;102004.03;5018747;28;45830;-71
2022/05/09 07:23:08;;;;;;;;;17.67;15.67;;;;;28.43;27.77;101994.69;5033604;28;45300;-72
2022/05/09 07:25:35;;;;;;;;;20.00;18.33;;;;;28.67;27.31;101993.72;5017925;28;45615;-72
2022/05/09 07:28:01;;;;;;;;;21.00;20.00;;;;;29.00;26.15;102008.78;5019248;28;45370;-71
2022/05/09 07:30:28;;;;;;;;;22.33;19.33;;;;;29.09;27.10;101982.75;5018444;28;45222;-71
2022/05/09 07:32:54;;;;;;;;;16.67;16.33;;;;;29.63;26.62;102002.63;4993020;28;45485;-71
2022/05/09 07:35:21;;;;;;;;;18.67;18.67;;;;;29.97;26.19;101995.41;5000883;28;45367;-71
2022/05/09 07:37:47;;;;;;;;;16.33;15.33;;;;;29.84;24.95;102003.94;5007630;28;45552;-71
2022/05/09 07:40:15;;;;;;;;;18.00;15.00;;;;;29.56;26.13;101993.72;5017440;28;45571;-71
2022/05/09 07:42:42;;;;;;;;;23.33;17.33;;;;;29.70;25.90;101995.13;5018582;28;45457;-72
2022/05/09 07:45:10;;;;;;;;;20.33;19.33;;;;;29.38;25.91;101967.25;5018792;28;45299;-71
2022/05/09 07:47:35;;;;;;;;;19.67;16.67;;;;;29.53;26.97;101972.28;5019126;28;45209;-73
2022/05/09 07:50:03;;;;;;;;;19.67;16.67;;;;;29.58;24.94;101973.22;5018761;28;46130;-74
2022/05/09 07:52:29;;;;;;;;;18.67;16.33;;;;;29.64;26.15;101996.94;5017826;28;45377;-75
2022/05/09 07:54:54;;;;;;;;;17.33;15.33;;;;;29.37;27.51;101996.56;5019270;28;45313;-74
2022/05/09 07:57:19;;;;;;;;;17.33;16.33;;;;;28.85;27.76;101956.38;5017682;28;45428;-74
2022/05/09 07:59:45;;;;;;;;;20.00;17.67;;;;;28.83;27.77;101994.91;4996938;28;46294;-76
2022/05/09 08:02:10;;;;;;;;;14.00;14.00;;;;;28.14;28.60;101882.31;4998811;28;45319;-73
2022/05/09 08:04:36;;;;;;;;;17.33;17.33;;;;;28.72;27.51;101962.91;5017545;28;45208;-72
2022/05/09 08:07:02;;;;;;;;;20.33;19.33;;;;;28.47;26.91;101930.25;5016339;28;45769;-76
2022/05/09 08:09:28;;;;;;;;;18.00;16.67;;;;;28.74;27.87;101997.19;4996447;28;46870;-71
2022/05/09 08:11:54;;;;;;;;;16.00;15.67;;;;;28.73;27.65;101953.63;5016075;28;45241;-67
2022/05/09 08:14:20;;;;;;;;;18.00;18.00;;;;;28.75;26.83;101919.47;5027260;28;45488;-74
2022/05/09 08:16:46;;;;;;;;;17.67;17.33;;;;;29.23;27.65;101995.13;5016808;28;45485;-68
2022/05/09 08:19:12;;;;;;;;;15.33;14.33;;;;;29.40;27.51;101995.25;5016969;28;45926;-69
2022/05/09 08:21:38;;;;;;;;;20.67;18.33;;;;;29.26;27.05;101960.97;5004310;28;45375;-69
2022/05/09 08:24:11;;;;;;;;;18.00;18.00;;;;;29.42;27.29;101959.38;4999389;28;45340;-74
2022/05/09 08:26:36;;;;;;;;;20.33;19.67;;;;;29.77;26.24;101989.50;5017604;28;45285;-68
2022/05/09 08:29:02;;;;;;;;;19.33;18.67;;;;;29.47;26.50;101932.97;5016793;28;46111;-69
2022/05/09 08:31:27;;;;;;;;;20.33;18.00;;;;;29.92;26.43;101970.66;5017001;28;45543;-71
2022/05/09 08:33:56;;;;;;;;;23.33;21.00;;;;;30.07;26.66;101961.94;5030830;28;45366;-73
2022/05/09 08:39:08;;;;;;;;;17.00;17.00;;;;;30.82;26.10;101994.59;5017591;28;45306;-65
2022/05/09 08:41:47;;;;;;;;;26.33;25.33;;;;;30.67;24.97;101954.00;5016560;28;45239;-68
2022/05/09 08:44:33;;;;;;;;;23.00;20.67;;;;;31.09;25.25;101992.88;5017299;28;45476;-68
2022/05/09 08:47:17;;;;;;;;;20.00;19.00;;;;;31.31;24.95;102005.88;5017903;28;45322;-69
2022/05/09 08:49:51;;;;;;;;;22.33;22.33;;;;;30.72;24.59;101915.66;4998067;28;45738;-69
2022/05/09 08:52:36;;;;;;;;;25.00;23.00;;;;;31.24;24.21;101966.75;4998913;28;45496;-67
2022/05/09 08:55:02;;;;;;;;;21.00;19.33;;;;;31.63;24.59;101992.28;5015109;28;45544;-68
2022/05/09 08:57:38;;;;;;;;;21.33;20.33;;;;;31.74;24.26;101997.72;4998606;28;45418;-67
2022/05/09 09:00:12;;;;;;;;;24.00;21.33;;;;;31.62;24.16;101938.38;5016427;28;46560;-66
2022/05/09 09:03:07;;;;;;;;;20.00;19.00;;;;;32.25;23.68;101990.06;5015683;28;45539;-70
2022/05/09 09:05:36;;;;;;;;;27.00;21.67;;;;;32.45;23.66;101970.22;5005654;28;45507;-67
2022/05/09 09:08:09;;;;;;;;;26.00;23.67;;;;;32.78;22.94;101985.63;5015873;28;45382;-66
2022/05/09 09:10:50;;;;;;;;;21.33;21.00;;;;;33.04;22.25;101985.88;4988908;28;47727;-68
2022/05/09 09:13:42;;;;;;;;;21.00;18.33;;;;;33.43;22.96;101984.50;5015391;28;45879;-69
2022/05/09 09:16:49;;;;;;;;;33.33;31.33;;;;;33.98;21.60;101979.56;4995154;28;45507;-67
2022/05/09 09:19:45;;;;;;;;;23.33;22.33;;;;;34.59;20.99;101983.28;4915988;28;45706;-74
2022/05/09 09:22:59;;;;;;;;;23.67;22.33;;;;;35.11;20.37;101971.16;5006114;28;46606;-75
2022/05/09 09:26:06;;;;;;;;;25.67;22.67;;;;;35.31;19.52;101929.63;4972093;28;46054;-73
2022/05/09 09:28:46;;;;;;;;;23.67;22.00;;;;;35.64;19.60;101924.53;5024841;28;45428;-75
2022/05/09 09:31:18;;;;;;;;;23.33;23.00;;;;;36.07;19.21;101966.44;4998948;28;45508;-74
2022/05/09 09:33:57;;;;;;;;;21.00;21.00;;;;;35.68;19.20;101892.44;5014884;28;45852;-74
2022/05/09 09:36:30;;;;;;;;;22.67;21.33;;;;;36.28;18.74;101918.09;5015421;28;45774;-75
2022/05/09 09:39:07;;;;;;;;;27.00;24.00;;;;;36.84;17.96;101945.38;5016709;28;45265;-74
2022/05/09 09:41:34;;;;;;;;;22.33;21.33;;;;;37.05;17.60;101927.44;5015003;28;45464;-75
2022/05/09 09:44:12;;;;;;;;;21.00;19.00;;;;;37.30;18.00;101925.53;5016818;28;46124;-75
2022/05/09 09:47:03;;;;;;;;;24.00;23.67;;;;;37.39;18.03;101965.34;5016838;28;45419;-75
2022/05/09 09:49:30;;;;;;;;;22.33;21.33;;;;;37.16;18.02;101967.78;4998753;28;45284;-74
2022/05/09 09:51:57;;;;;;;;;21.33;20.00;;;;;36.83;17.79;101974.19;5015340;28;45655;-73
2022/05/09 09:54:27;;;;;;;;;23.00;22.33;;;;;36.17;18.91;101955.28;5014200;28;47697;-74
2022/05/09 09:56:53;;;;;;;;;29.00;25.67;;;;;35.85;18.31;101950.22;5013902;28;46504;-74
2022/05/09 09:59:38;;;;;;;;;24.33;24.00;;;;;34.81;19.17;101899.28;4998969;28;45524;-74
2022/05/09 10:02:16;;;;;;;;;26.33;25.33;;;;;34.30;19.80;101919.47;5016360;28;45634;-75
2022/05/09 10:04:43;;;;;;;;;25.67;24.00;;;;;33.62;21.32;101939.94;5014106;28;46750;-74
2022/05/09 10:07:13;;;;;;;;;29.00;27.00;;;;;33.11;21.68;101948.75;5014149;28;45278;-75
2022/05/09 10:10:15;;;;;;;;;22.67;21.67;;;;;32.00;22.54;101876.97;5015881;28;45568;-75
2022/05/09 10:13:16;;;;;;;;;26.00;21.67;;;;;31.37;23.95;101908.66;5015874;28;45767;-79
2022/05/09 10:15:41;;;;;;;;;26.00;25.00;;;;;30.94;24.65;101945.94;4999165;28;48409;-76
2022/05/09 10:18:23;;;;;;;;;27.67;25.67;;;;;30.36;24.74;101938.03;5015179;28;45405;-78
2022/05/09 10:20:52;;;;;;;;;27.00;25.33;;;;;29.45;25.68;101926.03;4998833;28;45292;-76
2022/05/09 10:26:25;;;;;;;;;20.67;20.67;;;;;28.69;27.30;101922.34;5026700;28;45253;-73
2022/05/09 10:29:00;;;;;;;;;22.67;22.67;;;;;28.23;27.62;101940.25;5022610;28;45503;-73
2022/05/09 10:31:40;;;;;;;;;28.00;25.00;;;;;27.98;28.13;101943.13;5015854;28;45643;-73
2022/05/09 10:34:27;;;;;;;;;22.00;21.00;;;;;27.56;28.95;101926.56;5013959;28;45416;-74
2022/05/09 10:37:15;;;;;;;;;25.67;24.00;;;;;27.13;29.02;101879.38;5014649;28;45515;-74
2022/05/09 10:39:53;;;;;;;;;29.00;26.67;;;;;27.11;29.62;101914.28;4984180;28;45484;-74
2022/05/09 10:42:33;;;;;;;;;26.67;25.33;;;;;26.85;30.03;101905.25;5015597;28;45446;-74
2022/05/09 10:45:06;;;;;;;;;28.00;25.00;;;;;26.82;29.80;101904.84;4994444;28;46226;-76
2022/05/09 10:47:42;;;;;;;;;28.67;24.33;;;;;26.48;30.04;101868.00;5015911;28;45635;-73
2022/05/09 10:50:31;;;;;;;;;27.00;25.33;;;;;26.74;30.36;101930.53;5014692;28;45313;-72
2022/05/09 10:53:27;;;;;;;;;23.00;23.00;;;;;26.68;30.47;101920.50;4992848;28;45283;-71
2022/05/09 10:56:06;;;;;;;;;24.67;23.67;;;;;26.63;30.83;101918.44;4994224;28;45487;-74
2022/05/09 10:58:42;;;;;;;;;25.33;22.00;;;;;26.58;30.98;101920.16;4994844;28;46923;-73
2022/05/09 11:01:13;;;;;;;;;26.67;23.67;;;;;26.44;31.02;101899.50;4996286;28;45342;-75
2022/05/09 11:03:41;;;;;;;;;19.33;19.33;;;;;26.37;31.22;101903.09;4994961;28;45389;-73
2022/05/09 11:06:26;;;;;;;;;26.67;26.33;;;;;26.27;31.33;101908.19;4996009;28;45347;-74
2022/05/09 11:09:24;;;;;;;;;24.33;23.00;;;;;26.19;31.74;101900.25;4998164;28;45958;-77
2022/05/09 11:12:02;;;;;;;;;25.33;24.33;;;;;26.14;31.92;101910.97;5009790;28;45342;-76
2022/05/09 11:14:49;;;;;;;;;28.00;27.67;;;;;25.93;32.34;101905.88;5009730;28;45272;-74
2022/05/09 11:17:17;;;;;;;;;24.33;24.33;;;;;25.72;32.04;101913.28;5001814;28;45368;-77
2022/05/09 11:20:04;;;;;;;;;25.33;21.67;;;;;25.54;32.34;101924.00;5016938;28;45832;-72
2022/05/09 11:22:56;;;;;;;;;28.00;25.67;;;;;25.12;32.68;101898.97;5016457;28;45663;-74
2022/05/09 11:25:44;;;;;;;;;26.00;24.67;;;;;25.06;33.06;101901.72;5017645;28;45538;-72
2022/05/09 11:28:19;;;;;;;;;29.33;24.33;;;;;25.07;33.14;101901.50;5016672;28;45417;-72
2022/05/09 11:30:59;;;;;;;;;22.00;18.67;;;;;24.85;33.81;101853.81;5000244;28;47468;-73
2022/05/09 11:33:50;;;;;;;;;19.00;19.00;;;;;25.19;33.10;101898.97;5017997;28;45450;-73
2022/05/09 11:36:43;;;;;;;;;22.33;21.33;;;;;25.17;33.12;101885.56;5019137;28;45432;-73